createdAt,value
2022-09-26T00:00:02.406Z,1009.8
2022-09-26T00:01:02.801Z,1009.8
2022-09-26T00:02:02.011Z,1009.8
2022-09-26T00:03:01.842Z,1009.8
2022-09-26T00:04:02.795Z,1009.8
2022-09-26T00:05:02.609Z,1009.8
2022-09-26T00:06:02.599Z,1009.8
2022-09-26T00:07:02.329Z,1009.9
2022-09-26T00:08:02.330Z,1009.8
2022-09-26T00:09:02.277Z,1009.8
2022-09-26T00:10:02.076Z,1009.8
2022-09-26T00:11:02.056Z,1009.8
2022-09-26T00:12:01.795Z,1009.8
2022-09-26T00:13:01.890Z,1009.8
2022-09-26T00:14:02.785Z,1009.8
2022-09-26T00:15:02.579Z,1009.7
2022-09-26T00:16:02.677Z,1009.7
2022-09-26T00:17:02.082Z,1009.7
2022-09-26T00:18:01.966Z,1009.6
2022-09-26T00:19:01.757Z,1009.6
2022-09-26T00:20:02.801Z,1009.6
2022-09-26T00:21:02.646Z,1009.6
2022-09-26T00:22:02.632Z,1009.5
2022-09-26T00:23:02.398Z,1009.5
2022-09-26T00:24:02.446Z,1009.5
2022-09-26T00:25:02.374Z,1009.5
2022-09-26T00:26:02.160Z,1009.5
2022-09-26T00:27:02.102Z,1009.4
2022-09-26T00:28:01.950Z,1009.5
2022-09-26T00:29:01.974Z,1009.6
2022-09-26T00:30:01.767Z,1009.6
2022-09-26T00:31:03.066Z,1009.6
2022-09-26T00:32:02.006Z,1009.5
2022-09-26T00:33:01.984Z,1009.5
2022-09-26T00:34:01.796Z,1009.5
2022-09-26T00:35:02.798Z,1009.4
2022-09-26T00:36:02.613Z,1009.5
2022-09-26T00:37:02.584Z,1009.4
2022-09-26T00:38:02.404Z,1009.5
2022-09-26T00:39:02.450Z,1009.4
2022-09-26T00:40:02.364Z,1009.4
2022-09-26T00:41:02.477Z,1009.4
2022-09-26T00:42:02.390Z,1009.4
2022-09-26T00:43:02.304Z,1009.4
2022-09-26T00:44:02.079Z,1009.4
2022-09-26T00:45:02.228Z,1009.4
2022-09-26T00:46:02.523Z,1009.4
2022-09-26T00:47:02.417Z,1009.4
2022-09-26T00:48:02.566Z,1009.4
2022-09-26T00:49:02.537Z,1009.4
2022-09-26T00:50:02.382Z,1009.4
2022-09-26T00:51:02.271Z,1009.4
2022-09-26T00:52:02.037Z,1009.4
2022-09-26T00:53:02.212Z,1009.4
2022-09-26T00:54:01.991Z,1009.4
2022-09-26T00:55:01.952Z,1009.4
2022-09-26T00:56:01.800Z,1009.3
2022-09-26T00:57:02.811Z,1009.3
2022-09-26T00:58:02.617Z,1009.4
2022-09-26T00:59:02.570Z,1009.4
2022-09-26T01:00:02.387Z,1009.3
2022-09-26T01:01:02.924Z,1009.4
2022-09-26T01:02:02.466Z,1009.3
2022-09-26T01:03:02.329Z,1009.3
2022-09-26T01:04:02.316Z,1009.3
2022-09-26T01:05:02.104Z,1009.3
2022-09-26T01:06:02.205Z,1009.4
2022-09-26T01:07:01.976Z,1009.3
2022-09-26T01:08:02.028Z,1009.3
2022-09-26T01:09:01.787Z,1009.4
2022-09-26T01:10:02.861Z,1009.3
2022-09-26T01:11:02.621Z,1009.3
2022-09-26T01:12:02.681Z,1009.4
2022-09-26T01:13:02.462Z,1009.3
2022-09-26T01:14:02.646Z,1009.3
2022-09-26T01:15:02.435Z,1009.3
2022-09-26T01:16:02.493Z,1009.3
2022-09-26T01:17:03.067Z,1009.3
2022-09-26T01:18:01.835Z,1009.3
2022-09-26T01:19:02.785Z,1009.4
2022-09-26T01:20:02.592Z,1009.3
2022-09-26T01:21:02.618Z,1009.3
2022-09-26T01:22:02.396Z,1009.3
2022-09-26T01:23:02.391Z,1009.2
2022-09-26T01:24:02.152Z,1009.3
2022-09-26T01:25:02.292Z,1009.3
2022-09-26T01:26:02.034Z,1009.2
2022-09-26T01:27:02.085Z,1009.3
2022-09-26T01:28:01.767Z,1009.2
2022-09-26T01:29:01.898Z,1009.2
2022-09-26T01:30:02.801Z,1009.2
2022-09-26T01:31:02.833Z,1009.2
2022-09-26T01:32:02.085Z,1009.2
2022-09-26T01:33:02.150Z,1009.2
2022-09-26T01:34:01.930Z,1009.1
2022-09-26T01:35:02.029Z,1009.1
2022-09-26T01:36:01.740Z,1009.1
2022-09-26T01:37:02.791Z,1009.1
2022-09-26T01:38:02.551Z,1009.1
2022-09-26T01:39:02.665Z,1009.1
2022-09-26T01:40:02.456Z,1009.1
2022-09-26T01:41:02.559Z,1009.1
2022-09-26T01:42:02.416Z,1009.1
2022-09-26T01:43:02.218Z,1009.1
2022-09-26T01:44:02.199Z,1009.1
2022-09-26T01:45:01.985Z,1009.1
2022-09-26T01:46:02.488Z,1009
2022-09-26T01:47:02.369Z,1009.1
2022-09-26T01:48:02.132Z,1009
2022-09-26T01:49:02.134Z,1009.1
2022-09-26T01:50:01.945Z,1009
2022-09-26T01:51:01.931Z,1009
2022-09-26T01:52:01.837Z,1009
2022-09-26T01:53:02.894Z,1009
2022-09-26T01:54:02.667Z,1009
2022-09-26T01:55:02.775Z,1009
2022-09-26T01:56:02.551Z,1008.9
2022-09-26T01:57:02.530Z,1008.9
2022-09-26T01:58:02.443Z,1008.9
2022-09-26T01:59:02.271Z,1008.9
2022-09-26T02:00:02.651Z,1009
2022-09-26T02:01:02.721Z,1008.9
2022-09-26T02:02:02.918Z,1008.9
2022-09-26T02:03:02.907Z,1008.9
2022-09-26T02:04:02.657Z,1008.9
2022-09-26T02:05:02.770Z,1008.9
2022-09-26T02:06:02.537Z,1008.9
2022-09-26T02:07:02.530Z,1008.8
2022-09-26T02:08:02.405Z,1008.9
2022-09-26T02:09:02.478Z,1008.8
2022-09-26T02:10:02.353Z,1008.8
2022-09-26T02:11:02.150Z,1008.8
2022-09-26T02:12:02.222Z,1008.8
2022-09-26T02:13:01.935Z,1008.8
2022-09-26T02:14:01.960Z,1008.8
2022-09-26T02:15:01.823Z,1008.7
2022-09-26T02:16:03.001Z,1008.8
2022-09-26T02:17:02.239Z,1008.8
2022-09-26T02:18:02.131Z,1008.8
2022-09-26T02:19:01.878Z,1008.8
2022-09-26T02:20:01.850Z,1008.8
2022-09-26T02:21:02.762Z,1008.9
2022-09-26T02:22:02.556Z,1008.8
2022-09-26T02:23:02.566Z,1008.8
2022-09-26T02:24:02.443Z,1008.7
2022-09-26T02:25:02.264Z,1008.8
2022-09-26T02:26:02.212Z,1008.8
2022-09-26T02:27:02.062Z,1008.8
2022-09-26T02:28:01.938Z,1008.8
2022-09-26T02:29:01.776Z,1008.7
2022-09-26T02:30:01.845Z,1008.8
2022-09-26T02:31:02.782Z,1008.7
2022-09-26T02:32:01.958Z,1008.7
2022-09-26T02:33:01.962Z,1008.7
2022-09-26T02:34:02.838Z,1008.7
2022-09-26T02:35:02.603Z,1008.6
2022-09-26T02:36:02.666Z,1008.6
2022-09-26T02:37:02.465Z,1008.6
2022-09-26T02:38:02.533Z,1008.6
2022-09-26T02:39:02.496Z,1008.6
2022-09-26T02:40:02.262Z,1008.5
2022-09-26T02:41:02.175Z,1008.5
2022-09-26T02:42:01.964Z,1008.6
2022-09-26T02:43:02.070Z,1008.6
2022-09-26T02:44:01.832Z,1008.5
2022-09-26T02:45:02.914Z,1008.5
2022-09-26T02:46:02.979Z,1008.5
2022-09-26T02:47:02.367Z,1008.5
2022-09-26T02:48:02.294Z,1008.5
2022-09-26T02:49:02.079Z,1008.5
2022-09-26T02:50:02.094Z,1008.5
2022-09-26T02:51:01.823Z,1008.5
2022-09-26T02:52:01.947Z,1008.5
2022-09-26T02:53:02.808Z,1008.5
2022-09-26T02:54:02.615Z,1008.5
2022-09-26T02:55:02.633Z,1008.5
2022-09-26T02:56:02.406Z,1008.5
2022-09-26T02:57:02.533Z,1008.5
2022-09-26T02:58:02.394Z,1008.5
2022-09-26T02:59:02.178Z,1008.5
2022-09-26T03:00:02.156Z,1008.4
2022-09-26T03:01:02.175Z,1008.4
2022-09-26T03:02:02.388Z,1008.4
2022-09-26T03:03:02.392Z,1008.4
2022-09-26T03:04:02.107Z,1008.4
2022-09-26T03:05:02.357Z,1008.4
2022-09-26T03:06:02.127Z,1008.4
2022-09-26T03:07:02.122Z,1008.3
2022-09-26T03:08:01.948Z,1008.4
2022-09-26T03:09:01.884Z,1008.3
2022-09-26T03:10:02.827Z,1008.4
2022-09-26T03:11:02.632Z,1008.3
2022-09-26T03:12:02.630Z,1008.4
2022-09-26T03:13:02.445Z,1008.3
2022-09-26T03:14:02.570Z,1008.3
2022-09-26T03:15:02.420Z,1008.3
2022-09-26T03:16:02.462Z,1008.3
2022-09-26T03:17:01.821Z,1008.3
2022-09-26T03:18:01.998Z,1008.3
2022-09-26T03:19:01.767Z,1008.3
2022-09-26T03:20:02.765Z,1008.3
2022-09-26T03:21:02.590Z,1008.3
2022-09-26T03:22:02.696Z,1008.3
2022-09-26T03:23:02.507Z,1008.3
2022-09-26T03:24:02.485Z,1008.3
2022-09-26T03:25:02.490Z,1008.3
2022-09-26T03:26:02.272Z,1008.3
2022-09-26T03:27:02.359Z,1008.2
2022-09-26T03:28:02.113Z,1008.2
2022-09-26T03:29:02.204Z,1008.3
2022-09-26T03:30:01.941Z,1008.2
2022-09-26T03:31:01.964Z,1008.3
2022-09-26T03:32:02.615Z,1008.2
2022-09-26T03:33:02.429Z,1008.2
2022-09-26T03:34:02.623Z,1008.3
2022-09-26T03:35:02.448Z,1008.2
2022-09-26T03:36:02.234Z,1008.2
2022-09-26T03:37:02.224Z,1008.2
2022-09-26T03:38:02.016Z,1008.2
2022-09-26T03:39:02.027Z,1008.2
2022-09-26T03:40:01.815Z,1008.2
2022-09-26T03:41:02.359Z,1008.2
2022-09-26T03:42:02.317Z,1008.2
2022-09-26T03:43:02.100Z,1008.2
2022-09-26T03:44:02.092Z,1008.2
2022-09-26T03:45:01.905Z,1008.2
2022-09-26T03:46:02.099Z,1008.2
2022-09-26T03:47:02.446Z,1008.1
2022-09-26T03:48:02.196Z,1008.1
2022-09-26T03:49:02.171Z,1008.1
2022-09-26T03:50:01.939Z,1008.1
2022-09-26T03:51:01.889Z,1008.1
2022-09-26T03:52:01.755Z,1008.1
2022-09-26T03:53:02.767Z,1008
2022-09-26T03:54:02.599Z,1008
2022-09-26T03:55:02.627Z,1008
2022-09-26T03:56:02.390Z,1008.1
2022-09-26T03:57:02.461Z,1008.1
2022-09-26T03:58:02.319Z,1008.1
2022-09-26T03:59:02.142Z,1008
2022-09-26T04:00:02.143Z,1008.1
2022-09-26T04:01:02.196Z,1008
2022-09-26T04:02:02.748Z,1008
2022-09-26T04:03:02.660Z,1008
2022-09-26T04:04:02.405Z,1008
2022-09-26T04:05:02.413Z,1008
2022-09-26T04:06:02.320Z,1008
2022-09-26T04:07:02.065Z,1008
2022-09-26T04:08:02.010Z,1008
2022-09-26T04:09:01.875Z,1008
2022-09-26T04:10:01.912Z,1007.9
2022-09-26T04:11:02.796Z,1008
2022-09-26T04:12:02.562Z,1008
2022-09-26T04:13:02.565Z,1007.9
2022-09-26T04:14:02.418Z,1007.9
2022-09-26T04:15:02.416Z,1007.9
2022-09-26T04:16:02.516Z,1008
2022-09-26T04:17:01.761Z,1008
2022-09-26T04:18:02.752Z,1007.8
2022-09-26T04:19:02.544Z,1007.9
2022-09-26T04:20:02.506Z,1007.9
2022-09-26T04:21:10.242Z,1007.9
2022-09-26T04:22:02.041Z,1007.9
2022-09-26T04:23:02.062Z,1007.9
2022-09-26T04:24:01.829Z,1007.9
2022-09-26T04:25:01.897Z,1007.9
2022-09-26T04:26:02.758Z,1007.9
2022-09-26T04:27:02.582Z,1007.9
2022-09-26T04:28:02.630Z,1007.9
2022-09-26T04:29:02.395Z,1007.9
2022-09-26T04:30:02.417Z,1008
2022-09-26T04:31:02.288Z,1007.9
2022-09-26T04:32:02.887Z,1007.9
2022-09-26T04:33:01.825Z,1007.8
2022-09-26T04:34:02.744Z,1007.9
2022-09-26T04:35:02.540Z,1007.8
2022-09-26T04:36:02.536Z,1007.8
2022-09-26T04:37:02.443Z,1007.9
2022-09-26T04:38:02.227Z,1007.8
2022-09-26T04:39:02.199Z,1007.8
2022-09-26T04:40:01.974Z,1007.8
2022-09-26T04:41:02.228Z,1007.9
2022-09-26T04:42:02.031Z,1007.9
2022-09-26T04:43:02.038Z,1007.9
2022-09-26T04:44:01.791Z,1007.9
2022-09-26T04:45:02.821Z,1007.9
2022-09-26T04:46:02.854Z,1007.8
2022-09-26T04:47:02.102Z,1007.9
2022-09-26T04:48:02.128Z,1007.9
2022-09-26T04:49:02.025Z,1007.9
2022-09-26T04:50:01.827Z,1007.9
2022-09-26T04:51:02.817Z,1007.9
2022-09-26T04:52:02.589Z,1007.9
2022-09-26T04:53:02.586Z,1007.9
2022-09-26T04:54:02.514Z,1007.9
2022-09-26T04:55:02.288Z,1007.9
2022-09-26T04:56:02.114Z,1007.9
2022-09-26T04:57:02.081Z,1007.9
2022-09-26T04:58:01.873Z,1007.9
2022-09-26T04:59:01.899Z,1007.9
2022-09-26T05:00:02.827Z,1007.9
2022-09-26T05:01:02.901Z,1007.9
2022-09-26T05:02:02.422Z,1007.9
2022-09-26T05:03:02.376Z,1007.9
2022-09-26T05:04:02.091Z,1007.8
2022-09-26T05:05:02.146Z,1007.9
2022-09-26T05:06:02.022Z,1007.9
2022-09-26T05:07:01.815Z,1007.9
2022-09-26T05:08:02.779Z,1007.9
2022-09-26T05:09:02.524Z,1007.9
2022-09-26T05:10:02.570Z,1007.9
2022-09-26T05:11:02.499Z,1007.8
2022-09-26T05:12:02.256Z,1007.9
2022-09-26T05:13:02.089Z,1007.9
2022-09-26T05:14:02.094Z,1007.8
2022-09-26T05:15:01.823Z,1007.9
2022-09-26T05:16:02.216Z,1007.9
2022-09-26T05:17:02.314Z,1007.9
2022-09-26T05:18:01.780Z,1007.9
2022-09-26T05:19:02.871Z,1007.8
2022-09-26T05:20:02.591Z,1007.8
2022-09-26T05:21:02.600Z,1007.8
2022-09-26T05:22:02.518Z,1007.9
2022-09-26T05:23:02.325Z,1007.8
2022-09-26T05:24:02.307Z,1007.8
2022-09-26T05:25:02.039Z,1007.8
2022-09-26T05:26:02.082Z,1007.8
2022-09-26T05:27:01.807Z,1007.8
2022-09-26T05:28:02.843Z,1007.7
2022-09-26T05:29:09.585Z,1007.8
2022-09-26T05:30:02.375Z,1007.8
2022-09-26T05:31:02.365Z,1007.8
2022-09-26T05:32:02.145Z,1007.7
2022-09-26T05:33:02.052Z,1007.7
2022-09-26T05:34:01.823Z,1007.7
2022-09-26T05:35:01.888Z,1007.7
2022-09-26T05:36:02.796Z,1007.8
2022-09-26T05:37:02.544Z,1007.7
2022-09-26T05:38:02.575Z,1007.7
2022-09-26T05:39:02.365Z,1007.7
2022-09-26T05:40:02.301Z,1007.7
2022-09-26T05:41:02.461Z,1007.7
2022-09-26T05:42:02.279Z,1007.7
2022-09-26T05:43:02.281Z,1007.8
2022-09-26T05:44:02.021Z,1007.7
2022-09-26T05:45:02.051Z,1007.7
2022-09-26T05:46:01.798Z,1007.7
2022-09-26T05:47:02.425Z,1007.7
2022-09-26T05:48:02.372Z,1007.6
2022-09-26T05:49:02.104Z,1007.6
2022-09-26T05:50:02.214Z,1007.7
2022-09-26T05:51:01.949Z,1007.6
2022-09-26T05:52:01.886Z,1007.6
2022-09-26T05:53:02.815Z,1007.6
2022-09-26T05:54:02.584Z,1007.6
2022-09-26T05:55:02.577Z,1007.6
2022-09-26T05:56:02.492Z,1007.7
2022-09-26T05:57:02.236Z,1007.7
2022-09-26T05:58:02.197Z,1007.6
2022-09-26T05:59:01.938Z,1007.7
2022-09-26T06:00:01.934Z,1007.6
2022-09-26T06:01:03.017Z,1007.7
2022-09-26T06:02:02.168Z,1007.7
2022-09-26T06:03:02.020Z,1007.6
2022-09-26T06:04:01.763Z,1007.6
2022-09-26T06:05:02.737Z,1007.6
2022-09-26T06:06:02.519Z,1007.6
2022-09-26T06:07:02.516Z,1007.6
2022-09-26T06:08:02.453Z,1007.5
2022-09-26T06:09:02.198Z,1007.6
2022-09-26T06:10:02.218Z,1007.6
2022-09-26T06:11:01.965Z,1007.6
2022-09-26T06:12:01.946Z,1007.6
2022-09-26T06:13:02.833Z,1007.7
2022-09-26T06:14:02.563Z,1007.6
2022-09-26T06:15:02.613Z,1007.7
2022-09-26T06:16:02.537Z,1007.6
2022-09-26T06:17:02.051Z,1007.6
2022-09-26T06:18:02.092Z,1007.6
2022-09-26T06:19:01.805Z,1007.6
2022-09-26T06:20:02.803Z,1007.6
2022-09-26T06:21:02.551Z,1007.5
2022-09-26T06:22:02.620Z,1007.5
2022-09-26T06:23:02.381Z,1007.5
2022-09-26T06:24:02.522Z,1007.5
2022-09-26T06:25:02.287Z,1007.5
2022-09-26T06:26:02.128Z,1007.6
2022-09-26T06:27:02.179Z,1007.6
2022-09-26T06:28:01.900Z,1007.6
2022-09-26T06:29:01.926Z,1007.6
2022-09-26T06:30:02.801Z,1007.6
2022-09-26T06:31:02.573Z,1007.6
2022-09-26T06:32:01.999Z,1007.6
2022-09-26T06:33:01.935Z,1007.6
2022-09-26T06:34:02.782Z,1007.6
2022-09-26T06:35:02.579Z,1007.6
2022-09-26T06:36:02.601Z,1007.6
2022-09-26T06:37:02.342Z,1007.6
2022-09-26T06:38:02.349Z,1007.6
2022-09-26T06:39:02.067Z,1007.6
2022-09-26T06:40:02.074Z,1007.6
2022-09-26T06:41:02.088Z,1007.7
2022-09-26T06:42:02.038Z,1007.6
2022-09-26T06:43:01.758Z,1007.7
2022-09-26T06:44:02.732Z,1007.7
2022-09-26T06:45:02.504Z,1007.7
2022-09-26T06:46:02.531Z,1007.7
2022-09-26T06:47:03.155Z,1007.7
2022-09-26T06:48:01.900Z,1007.7
2022-09-26T06:49:01.816Z,1007.7
2022-09-26T06:50:02.930Z,1007.7
2022-09-26T06:51:02.688Z,1007.7
2022-09-26T06:52:02.629Z,1007.6
2022-09-26T06:53:12.352Z,1007.7
2022-09-26T06:54:02.068Z,1007.7
2022-09-26T06:55:02.052Z,1007.6
2022-09-26T06:56:01.814Z,1007.6
2022-09-26T06:57:02.763Z,1007.7
2022-09-26T06:58:02.574Z,1007.7
2022-09-26T06:59:02.541Z,1007.7
2022-09-26T07:00:02.526Z,1007.7
2022-09-26T07:01:02.923Z,1007.7
2022-09-26T07:02:02.289Z,1007.7
2022-09-26T07:03:02.238Z,1007.7
2022-09-26T07:04:02.035Z,1007.7
2022-09-26T07:05:01.958Z,1007.7
2022-09-26T07:06:01.736Z,1007.7
2022-09-26T07:07:02.724Z,1007.7
2022-09-26T07:08:02.475Z,1007.7
2022-09-26T07:09:12.644Z,1007.7
2022-09-26T07:10:03.061Z,1007.7
2022-09-26T07:11:56.547Z,1007.7
2022-09-26T07:12:16.527Z,1007.6
2022-09-26T07:13:02.356Z,1007.7
2022-09-26T07:14:02.517Z,1007.7
2022-09-26T07:15:02.339Z,1007.7
2022-09-26T07:16:02.428Z,1007.7
2022-09-26T07:17:02.574Z,1007.8
2022-09-26T07:18:02.388Z,1007.8
2022-09-26T07:19:02.397Z,1007.7
2022-09-26T07:20:02.106Z,1007.7
2022-09-26T07:21:02.087Z,1007.7
2022-09-26T07:22:01.791Z,1007.8
2022-09-26T07:23:02.858Z,1007.7
2022-09-26T07:24:02.580Z,1007.8
2022-09-26T07:25:02.581Z,1007.7
2022-09-26T07:26:02.398Z,1007.7
2022-09-26T07:27:02.283Z,1007.7
2022-09-26T07:28:02.050Z,1007.8
2022-09-26T07:29:02.085Z,1007.7
2022-09-26T07:30:01.872Z,1007.8
2022-09-26T07:31:02.171Z,1007.8
2022-09-26T07:32:02.508Z,1007.8
2022-09-26T07:33:02.312Z,1007.8
2022-09-26T07:34:02.255Z,1007.7
2022-09-26T07:35:02.004Z,1007.8
2022-09-26T07:36:06.162Z,1007.7
2022-09-26T07:37:01.843Z,1007.8
2022-09-26T07:38:01.846Z,1007.8
2022-09-26T07:39:02.772Z,1007.8
2022-09-26T07:40:02.638Z,1007.7
2022-09-26T07:41:02.834Z,1007.8
2022-09-26T07:42:02.700Z,1007.8
2022-09-26T07:43:30.768Z,1007.8
2022-09-26T07:45:28.666Z,1007.7
2022-09-26T07:45:30.324Z,1007.8
2022-09-26T07:46:02.180Z,1007.7
2022-09-26T07:47:02.350Z,1007.8
2022-09-26T07:48:02.136Z,1007.8
2022-09-26T07:49:02.146Z,1007.8
2022-09-26T07:50:01.913Z,1007.9
2022-09-26T07:51:09.547Z,1007.8
2022-09-26T07:52:02.376Z,1007.9
2022-09-26T07:53:02.152Z,1007.9
2022-09-26T07:54:02.121Z,1007.8
2022-09-26T07:55:01.924Z,1007.7
2022-09-26T07:56:01.854Z,1007.8
2022-09-26T07:57:02.768Z,1007.8
2022-09-26T07:58:02.534Z,1007.7
2022-09-26T07:59:02.496Z,1007.8
2022-09-26T08:00:02.382Z,1007.7
2022-09-26T08:01:02.132Z,1007.8
2022-09-26T08:02:03.005Z,1007.8
2022-09-26T08:03:02.313Z,1007.8
2022-09-26T08:04:02.396Z,1007.8
2022-09-26T08:05:02.134Z,1007.8
2022-09-26T08:06:02.132Z,1007.8
2022-09-26T08:07:01.839Z,1007.8
2022-09-26T08:08:01.836Z,1007.8
2022-09-26T08:09:02.745Z,1007.8
2022-09-26T08:10:02.513Z,1007.8
2022-09-26T08:11:04.877Z,1007.8
2022-09-26T08:12:02.731Z,1007.7
2022-09-26T08:13:02.535Z,1007.8
2022-09-26T08:14:02.496Z,1007.7
2022-09-26T08:15:02.416Z,1007.8
2022-09-26T08:16:02.390Z,1007.8
2022-09-26T08:17:02.574Z,1007.8
2022-09-26T08:18:02.534Z,1007.8
2022-09-26T08:19:02.398Z,1007.8
2022-09-26T08:20:02.201Z,1007.8
2022-09-26T08:21:02.100Z,1007.8
2022-09-26T08:22:01.913Z,1007.8
2022-09-26T08:23:01.892Z,1007.8
2022-09-26T08:24:01.742Z,1007.8
2022-09-26T08:25:02.712Z,1007.8
2022-09-26T08:26:02.526Z,1007.8
2022-09-26T08:27:02.456Z,1007.8
2022-09-26T08:28:02.295Z,1007.8
2022-09-26T08:29:02.076Z,1007.8
2022-09-26T08:30:02.007Z,1007.8
2022-09-26T08:31:01.976Z,1007.8
2022-09-26T08:32:02.320Z,1007.8
2022-09-26T08:33:02.312Z,1007.7
2022-09-26T08:34:02.029Z,1007.7
2022-09-26T08:35:01.949Z,1007.8
2022-09-26T08:36:01.753Z,1007.7
2022-09-26T08:37:02.741Z,1007.8
2022-09-26T08:38:02.525Z,1007.7
2022-09-26T08:39:02.458Z,1007.7
2022-09-26T08:40:02.338Z,1007.7
2022-09-26T08:41:02.453Z,1007.7
2022-09-26T08:42:02.370Z,1007.7
2022-09-26T08:43:02.269Z,1007.8
2022-09-26T08:44:01.945Z,1007.8
2022-09-26T08:45:01.964Z,1007.8
2022-09-26T08:46:01.929Z,1007.8
2022-09-26T08:47:02.561Z,1007.8
2022-09-26T08:48:02.568Z,1007.8
2022-09-26T08:49:02.348Z,1007.8
2022-09-26T08:50:02.192Z,1007.8
2022-09-26T08:51:02.147Z,1007.8
2022-09-26T08:52:01.953Z,1007.8
2022-09-26T08:53:01.964Z,1007.8
2022-09-26T08:54:01.769Z,1007.8
2022-09-26T08:55:02.732Z,1007.7
2022-09-26T08:56:02.479Z,1007.8
2022-09-26T08:57:02.402Z,1007.7
2022-09-26T08:58:02.257Z,1007.7
2022-09-26T08:59:02.034Z,1007.8
2022-09-26T09:00:01.983Z,1007.7
2022-09-26T09:01:01.771Z,1007.8
2022-09-26T09:02:02.323Z,1007.7
2022-09-26T09:03:02.601Z,1007.8
2022-09-26T09:04:02.479Z,1007.7
2022-09-26T09:05:02.320Z,1007.7
2022-09-26T09:06:02.271Z,1007.7
2022-09-26T09:07:01.966Z,1007.8
2022-09-26T09:08:01.967Z,1007.7
2022-09-26T09:09:01.757Z,1007.7
2022-09-26T09:10:02.761Z,1007.7
2022-09-26T09:11:02.569Z,1007.7
2022-09-26T09:12:02.521Z,1007.7
2022-09-26T09:13:02.381Z,1007.7
2022-09-26T09:14:02.159Z,1007.7
2022-09-26T09:15:27.153Z,1007.7
2022-09-26T09:16:02.159Z,1007.7
2022-09-26T09:17:02.309Z,1007.7
2022-09-26T09:18:02.269Z,1007.7
2022-09-26T09:19:02.047Z,1007.7
2022-09-26T09:20:02.008Z,1007.6
2022-09-26T09:21:01.770Z,1007.7
2022-09-26T09:22:02.628Z,1007.7
2022-09-26T09:23:02.376Z,1007.7
2022-09-26T09:24:02.281Z,1007.7
2022-09-26T09:25:02.072Z,1007.7
2022-09-26T09:27:55.392Z,1007.6
2022-09-26T09:28:09.219Z,1007.7
2022-09-26T09:29:02.216Z,1007.6
2022-09-26T09:30:10.409Z,1007.6
2022-09-26T09:31:02.756Z,1007.6
2022-09-26T09:32:02.077Z,1007.6
2022-09-26T09:33:02.011Z,1007.6
2022-09-26T09:34:01.789Z,1007.6
2022-09-26T09:35:02.760Z,1007.6
2022-09-26T09:36:02.534Z,1007.6
2022-09-26T09:37:02.485Z,1007.6
2022-09-26T09:38:02.314Z,1007.6
2022-09-26T09:39:02.078Z,1007.6
2022-09-26T09:40:02.058Z,1007.6
2022-09-26T09:41:02.129Z,1007.5
2022-09-26T09:42:02.028Z,1007.5
2022-09-26T09:43:01.775Z,1007.5
2022-09-26T09:44:02.753Z,1007.6
2022-09-26T09:45:02.536Z,1007.5
2022-09-26T09:46:02.609Z,1007.6
2022-09-26T09:47:03.043Z,1007.5
2022-09-26T09:48:01.807Z,1007.5
2022-09-26T09:49:01.818Z,1007.5
2022-09-26T09:50:02.716Z,1007.5
2022-09-26T09:51:02.464Z,1007.5
2022-09-26T09:52:02.394Z,1007.5
2022-09-26T09:53:02.265Z,1007.5
2022-09-26T09:54:02.028Z,1007.5
2022-09-26T09:55:02.005Z,1007.6
2022-09-26T09:56:01.777Z,1007.5
2022-09-26T09:57:02.736Z,1007.6
2022-09-26T09:58:02.508Z,1007.6
2022-09-26T09:59:02.449Z,1007.5
2022-09-26T10:00:02.957Z,1007.5
2022-09-26T10:01:02.760Z,1007.5
2022-09-26T10:02:02.375Z,1007.6
2022-09-26T10:03:02.754Z,1007.6
2022-09-26T10:04:02.655Z,1007.6
2022-09-26T10:05:02.373Z,1007.6
2022-09-26T10:06:02.384Z,1007.6
2022-09-26T10:07:02.312Z,1007.5
2022-09-26T10:08:02.055Z,1007.6
2022-09-26T10:09:41.205Z,1007.6
2022-09-26T10:10:01.939Z,1007.6
2022-09-26T10:11:01.872Z,1007.5
2022-09-26T10:12:02.802Z,1007.6
2022-09-26T10:13:02.557Z,1007.6
2022-09-26T10:14:02.561Z,1007.6
2022-09-26T10:15:02.438Z,1007.6
2022-09-26T10:16:02.511Z,1007.7
2022-09-26T10:17:02.515Z,1007.6
2022-09-26T10:18:27.175Z,1007.7
2022-09-26T10:19:04.502Z,1007.6
2022-09-26T10:20:02.223Z,1007.6
2022-09-26T10:21:02.219Z,1007.6
2022-09-26T10:22:02.040Z,1007.6
2022-09-26T10:23:01.953Z,1007.6
2022-09-26T10:24:01.748Z,1007.6
2022-09-26T10:25:02.702Z,1007.6
2022-09-26T10:26:02.549Z,1007.6
2022-09-26T10:27:02.512Z,1007.6
2022-09-26T10:28:02.344Z,1007.6
2022-09-26T10:29:02.159Z,1007.6
2022-09-26T10:30:02.075Z,1007.6
2022-09-26T10:31:02.336Z,1007.6
2022-09-26T10:32:01.836Z,1007.5
2022-09-26T10:33:01.833Z,1007.5
2022-09-26T10:34:02.716Z,1007.5
2022-09-26T10:35:02.544Z,1007.5
2022-09-26T10:36:02.459Z,1007.5
2022-09-26T10:37:02.322Z,1007.5
2022-09-26T10:38:02.095Z,1007.5
2022-09-26T10:39:02.055Z,1007.5
2022-09-26T10:40:01.885Z,1007.4
2022-09-26T10:41:02.287Z,1007.5
2022-09-26T10:42:02.120Z,1007.4
2022-09-26T10:43:01.998Z,1007.3
2022-09-26T10:44:01.781Z,1007.4
2022-09-26T10:45:02.824Z,1007.4
2022-09-26T10:46:02.829Z,1007.4
2022-09-26T10:47:01.957Z,1007.3
2022-09-26T10:48:02.786Z,1007.4
2022-09-26T10:49:02.563Z,1007.4
2022-09-26T10:50:02.555Z,1007.4
2022-09-26T10:51:02.556Z,1007.3
2022-09-26T10:52:02.285Z,1007.3
2022-09-26T10:53:02.559Z,1007.4
2022-09-26T10:54:02.407Z,1007.3
2022-09-26T10:55:02.167Z,1007.3
2022-09-26T10:56:02.119Z,1007.2
2022-09-26T10:57:01.988Z,1007.2
2022-09-26T10:58:01.901Z,1007.3
2022-09-26T10:59:02.747Z,1007.2
2022-09-26T11:00:02.525Z,1007.3
2022-09-26T11:01:02.544Z,1007.2
2022-09-26T11:02:02.583Z,1007.2
2022-09-26T11:03:02.386Z,1007.2
2022-09-26T11:04:02.493Z,1007.2
2022-09-26T11:05:02.450Z,1007.1
2022-09-26T11:06:02.208Z,1007.1
2022-09-26T11:07:02.197Z,1007.2
2022-09-26T11:08:01.990Z,1007.1
2022-09-26T11:09:01.923Z,1007.1
2022-09-26T11:10:01.779Z,1007.1
2022-09-26T11:11:02.689Z,1007.1
2022-09-26T11:12:02.492Z,1007.1
2022-09-26T11:13:02.444Z,1007
2022-09-26T11:14:02.328Z,1007
2022-09-26T11:15:02.087Z,1007
2022-09-26T11:16:02.494Z,1007
2022-09-26T11:17:01.992Z,1007
2022-09-26T11:18:01.987Z,1007.1
2022-09-26T11:19:01.764Z,1007
2022-09-26T11:20:02.755Z,1007.1
2022-09-26T11:21:02.493Z,1007.1
2022-09-26T11:22:08.754Z,1007
2022-09-26T11:23:02.619Z,1007
2022-09-26T11:24:02.375Z,1007
2022-09-26T11:25:02.356Z,1007
2022-09-26T11:26:02.105Z,1007
2022-09-26T11:27:02.048Z,1006.9
2022-09-26T11:28:01.816Z,1006.9
2022-09-26T11:29:02.806Z,1006.8
2022-09-26T11:30:02.620Z,1006.8
2022-09-26T11:31:02.679Z,1006.8
2022-09-26T11:32:01.711Z,1006.7
2022-09-26T11:33:02.698Z,1006.8
2022-09-26T11:34:02.461Z,1006.8
2022-09-26T11:35:02.570Z,1006.8
2022-09-26T11:36:02.447Z,1006.7
2022-09-26T11:37:02.379Z,1006.8
2022-09-26T11:38:02.250Z,1006.7
2022-09-26T11:39:01.988Z,1006.7
2022-09-26T11:40:10.278Z,1006.8
2022-09-26T11:41:02.451Z,1006.7
2022-09-26T11:42:02.208Z,1006.7
2022-09-26T11:43:02.154Z,1006.7
2022-09-26T11:44:01.899Z,1006.7
2022-09-26T11:45:01.859Z,1006.7
2022-09-26T11:46:02.920Z,1006.7
2022-09-26T11:47:01.788Z,1006.8
2022-09-26T11:48:02.751Z,1006.8
2022-09-26T11:49:02.533Z,1006.7
2022-09-26T11:50:02.483Z,1006.8
2022-09-26T11:51:02.420Z,1006.8
2022-09-26T11:52:02.220Z,1006.7
2022-09-26T11:53:02.137Z,1006.8
2022-09-26T11:54:01.933Z,1006.7
2022-09-26T11:55:01.915Z,1006.7
2022-09-26T11:56:02.753Z,1006.7
2022-09-26T11:57:02.580Z,1006.7
2022-09-26T11:58:04.331Z,1006.7
2022-09-26T11:59:02.059Z,1006.7
2022-09-26T12:00:02.048Z,1006.8
2022-09-26T12:01:01.809Z,1006.7
2022-09-26T12:02:02.156Z,1006.7
2022-09-26T12:03:02.606Z,1006.7
2022-09-26T12:04:03.033Z,1006.8
2022-09-26T12:05:01.831Z,1006.7
2022-09-26T12:06:02.783Z,1006.7
2022-09-26T12:07:02.548Z,1006.6
2022-09-26T12:08:02.495Z,1006.7
2022-09-26T12:09:02.359Z,1006.6
2022-09-26T12:10:02.140Z,1006.7
2022-09-26T12:11:02.034Z,1006.7
2022-09-26T12:12:01.754Z,1006.6
2022-09-26T12:13:02.810Z,1006.6
2022-09-26T12:14:02.608Z,1006.6
2022-09-26T12:15:02.676Z,1006.7
2022-09-26T12:16:02.758Z,1006.6
2022-09-26T12:17:02.415Z,1006.5
2022-09-26T12:18:02.425Z,1006.6
2022-09-26T12:19:02.151Z,1006.5
2022-09-26T12:20:02.055Z,1006.5
2022-09-26T12:21:01.793Z,1006.5
2022-09-26T12:22:02.790Z,1006.6
2022-09-26T12:23:02.525Z,1006.5
2022-09-26T12:24:02.538Z,1006.5
2022-09-26T12:25:02.395Z,1006.5
2022-09-26T12:26:02.174Z,1006.4
2022-09-26T12:27:02.129Z,1006.5
2022-09-26T12:28:01.905Z,1006.5
2022-09-26T12:29:01.868Z,1006.4
2022-09-26T12:30:02.781Z,1006.4
2022-09-26T12:31:02.897Z,1006.5